createdAt,value
2022-11-06T00:01:07.050Z,10.10
2022-11-06T00:03:37.488Z,10.10
2022-11-06T00:06:25.639Z,10.10
2022-11-06T00:08:53.709Z,10.10
2022-11-06T00:11:22.145Z,10.10
2022-11-06T00:13:52.306Z,10.10
2022-11-06T00:16:21.349Z,10.10
2022-11-06T00:18:51.369Z,10.10
2022-11-06T00:21:23.036Z,10.10
2022-11-06T00:23:52.224Z,10.10
2022-11-06T00:26:25.267Z,10.00
2022-11-06T00:28:54.094Z,10.00
2022-11-06T00:31:25.624Z,10.00
2022-11-06T00:33:57.501Z,10.00
2022-11-06T00:36:27.187Z,10.00
2022-11-06T00:38:56.646Z,9.90
2022-11-06T00:41:25.900Z,9.90
2022-11-06T00:43:56.942Z,9.90
2022-11-06T00:46:25.278Z,9.90
2022-11-06T00:48:56.235Z,9.90
2022-11-06T00:51:29.144Z,9.90
2022-11-06T00:53:59.436Z,9.90
2022-11-06T00:56:28.069Z,9.90
2022-11-06T00:58:57.036Z,9.90
2022-11-06T01:01:28.637Z,9.90
2022-11-06T01:04:01.229Z,9.90
2022-11-06T01:06:32.565Z,9.90
2022-11-06T01:09:01.349Z,9.90
2022-11-06T01:11:52.481Z,9.80
2022-11-06T01:14:23.767Z,9.80
2022-11-06T01:16:52.281Z,9.80
2022-11-06T01:19:23.740Z,9.80
2022-11-06T01:21:54.296Z,9.80
2022-11-06T01:24:26.476Z,9.80
2022-11-06T01:29:43.982Z,9.70
2022-11-06T01:32:12.314Z,9.70
2022-11-06T01:34:41.796Z,9.70
2022-11-06T01:37:14.157Z,9.70
2022-11-06T01:39:43.102Z,9.70
2022-11-06T01:42:12.565Z,9.70
2022-11-06T01:45:38.183Z,9.60
2022-11-06T01:48:06.975Z,9.60
2022-11-06T01:50:36.602Z,9.60
2022-11-06T01:53:05.526Z,9.60
2022-11-06T01:55:40.415Z,9.50
2022-11-06T01:58:14.227Z,9.50
2022-11-06T02:00:43.207Z,9.50
2022-11-06T02:03:13.592Z,9.50
2022-11-06T02:05:44.160Z,9.50
2022-11-06T02:08:16.716Z,9.50
2022-11-06T02:10:46.433Z,9.40
2022-11-06T02:13:30.091Z,9.40
2022-11-06T02:16:17.100Z,9.40
2022-11-06T02:19:14.967Z,9.40
2022-11-06T02:22:18.855Z,9.40
2022-11-06T02:25:13.785Z,9.40
2022-11-06T02:27:47.386Z,9.40
2022-11-06T02:30:18.664Z,9.30
2022-11-06T02:32:55.434Z,9.30
2022-11-06T02:35:29.957Z,9.30
2022-11-06T02:38:06.366Z,9.30
2022-11-06T02:40:40.596Z,9.30
2022-11-06T02:43:10.919Z,9.30
2022-11-06T02:45:47.269Z,9.30
2022-11-06T02:48:21.082Z,9.30
2022-11-06T02:50:52.531Z,9.30
2022-11-06T02:53:25.647Z,9.30
2022-11-06T02:55:58.732Z,9.30
2022-11-06T02:58:38.984Z,9.30
2022-11-06T03:01:13.584Z,9.30
2022-11-06T03:03:48.106Z,9.30
2022-11-06T03:06:23.179Z,9.30
2022-11-06T03:09:22.996Z,9.20
2022-11-06T03:12:00.460Z,9.20
2022-11-06T03:14:37.120Z,9.30
2022-11-06T03:17:16.396Z,9.20
2022-11-06T03:19:53.971Z,9.20
2022-11-06T03:22:29.132Z,9.20
2022-11-06T03:25:03.891Z,9.20
2022-11-06T03:27:39.606Z,9.20
2022-11-06T03:30:16.689Z,9.20
2022-11-06T03:32:52.161Z,9.20
2022-11-06T03:35:28.592Z,9.10
2022-11-06T03:38:04.428Z,9.10
2022-11-06T03:40:40.085Z,9.10
2022-11-06T03:43:13.806Z,9.10
2022-11-06T03:45:46.371Z,9.10
2022-11-06T03:48:22.396Z,9.10
2022-11-06T03:51:00.023Z,9.10
2022-11-06T03:53:33.624Z,9.00
2022-11-06T03:56:08.245Z,9.10
2022-11-06T03:58:42.874Z,9.00
2022-11-06T04:01:15.555Z,9.00
2022-11-06T04:03:50.294Z,9.00
2022-11-06T04:06:24.207Z,9.00
2022-11-06T04:09:12.404Z,9.00
2022-11-06T04:12:01.341Z,9.00
2022-11-06T04:14:32.812Z,9.00
2022-11-06T04:17:07.648Z,9.00
2022-11-06T04:19:35.581Z,9.00
2022-11-06T04:22:25.216Z,9.00
2022-11-06T04:25:27.256Z,9.00
2022-11-06T04:28:30.435Z,9.00
2022-11-06T04:31:11.056Z,9.00
2022-11-06T04:33:51.151Z,9.00
2022-11-06T04:36:30.589Z,9.00
2022-11-06T04:39:07.339Z,9.00
2022-11-06T04:41:42.818Z,9.00
2022-11-06T04:44:20.212Z,9.00
2022-11-06T04:46:55.738Z,9.00
2022-11-06T04:49:29.075Z,9.00
2022-11-06T04:51:58.943Z,9.00
2022-11-06T04:54:27.874Z,9.00
2022-11-06T04:57:00.317Z,9.00
2022-11-06T04:59:28.807Z,9.00
2022-11-06T05:01:56.856Z,9.00
2022-11-06T05:04:26.136Z,9.00
2022-11-06T05:06:54.076Z,9.00
2022-11-06T05:09:22.018Z,8.90
2022-11-06T05:11:50.049Z,8.90
2022-11-06T05:14:18.092Z,8.90
2022-11-06T05:16:46.065Z,8.90
2022-11-06T05:19:14.056Z,8.90
2022-11-06T05:22:01.101Z,8.90
2022-11-06T05:24:29.014Z,8.80
2022-11-06T05:26:59.600Z,8.80
2022-11-06T05:29:28.521Z,8.90
2022-11-06T05:31:56.506Z,8.80
2022-11-06T05:34:24.455Z,8.80
2022-11-06T05:36:53.728Z,8.80
2022-11-06T05:39:21.640Z,8.80
2022-11-06T05:41:49.563Z,8.80
2022-11-06T05:44:17.564Z,8.80
2022-11-06T05:46:49.878Z,8.80
2022-11-06T05:49:18.750Z,8.80
2022-11-06T05:51:47.121Z,8.80
2022-11-06T05:54:16.676Z,8.80
2022-11-06T05:56:44.628Z,8.80
2022-11-06T05:59:12.958Z,8.80
2022-11-06T06:01:41.020Z,8.80
2022-11-06T06:04:09.163Z,8.90
2022-11-06T06:06:38.089Z,8.90
2022-11-06T06:09:06.106Z,8.90
2022-11-06T06:11:35.692Z,8.90
2022-11-06T06:14:03.797Z,8.90
2022-11-06T06:16:32.428Z,8.90
2022-11-06T06:19:00.408Z,8.90
2022-11-06T06:21:28.508Z,8.90
2022-11-06T06:23:56.420Z,8.90
2022-11-06T06:26:24.324Z,8.90
2022-11-06T06:28:53.610Z,8.90
2022-11-06T06:31:22.188Z,8.90
2022-11-06T06:33:50.331Z,8.90
2022-11-06T06:36:18.434Z,8.90
2022-11-06T06:38:46.382Z,8.80
2022-11-06T06:41:14.354Z,8.80
2022-11-06T06:43:42.314Z,8.80
2022-11-06T06:46:11.708Z,8.80
2022-11-06T06:48:39.665Z,8.80
2022-11-06T06:51:08.725Z,8.80
2022-11-06T06:53:37.685Z,8.80
2022-11-06T06:56:06.518Z,8.80
2022-11-06T06:58:35.098Z,8.80
2022-11-06T07:01:05.802Z,8.80
2022-11-06T07:03:35.193Z,8.80
2022-11-06T07:06:03.189Z,8.80
2022-11-06T07:08:32.115Z,8.70
2022-11-06T07:11:01.603Z,8.80
2022-11-06T07:13:35.555Z,8.70
2022-11-06T07:16:05.239Z,8.70
2022-11-06T07:18:34.752Z,8.70
2022-11-06T07:21:06.519Z,8.70
2022-11-06T07:23:35.893Z,8.70
2022-11-06T07:26:05.373Z,8.70
2022-11-06T07:28:34.508Z,8.70
2022-11-06T07:31:06.483Z,8.70
2022-11-06T07:33:36.822Z,8.70
2022-11-06T07:36:07.258Z,8.80
2022-11-06T07:38:36.533Z,8.80
2022-11-06T07:41:05.958Z,8.80
2022-11-06T07:43:34.312Z,8.90
2022-11-06T07:46:03.886Z,8.90
2022-11-06T07:48:32.915Z,9.00
2022-11-06T07:51:05.481Z,9.10
2022-11-06T07:53:34.008Z,9.20
2022-11-06T07:56:02.496Z,9.30
2022-11-06T07:58:31.030Z,9.40
2022-11-06T08:00:59.789Z,9.50
2022-11-06T08:03:29.989Z,9.60
2022-11-06T08:05:58.450Z,9.70
2022-11-06T08:08:29.490Z,9.80
2022-11-06T08:10:57.399Z,9.90
2022-11-06T08:13:26.438Z,10.00
2022-11-06T08:15:54.576Z,10.10
2022-11-06T08:18:22.852Z,10.20
2022-11-06T08:20:54.817Z,10.30
2022-11-06T08:23:22.852Z,10.30
2022-11-06T08:25:56.175Z,10.40
2022-11-06T08:28:24.398Z,10.50
2022-11-06T08:30:55.432Z,10.60
2022-11-06T08:33:28.348Z,10.70
2022-11-06T08:35:57.760Z,10.90
2022-11-06T08:39:49.846Z,10.90
2022-11-06T08:41:54.014Z,11.00
2022-11-06T08:44:22.142Z,11.10
2022-11-06T08:46:52.034Z,11.10
2022-11-06T08:49:20.887Z,11.20
2022-11-06T08:51:48.904Z,11.40
2022-11-06T08:54:16.967Z,11.40
2022-11-06T08:56:48.706Z,11.50
2022-11-06T08:59:17.980Z,11.60
2022-11-06T09:01:46.007Z,11.60
2022-11-06T09:04:14.154Z,11.70
2022-11-06T09:06:43.374Z,11.70
2022-11-06T09:09:11.359Z,11.80
2022-11-06T09:11:39.740Z,11.80
2022-11-06T09:14:07.879Z,11.90
2022-11-06T09:16:37.229Z,11.90
2022-11-06T09:19:05.298Z,12.00
2022-11-06T09:21:33.628Z,12.00
2022-11-06T09:24:01.747Z,12.10
2022-11-06T09:26:29.732Z,12.10
2022-11-06T09:28:57.730Z,12.20
2022-11-06T09:31:25.714Z,12.30
2022-11-06T09:33:55.784Z,12.30
2022-11-06T09:36:24.077Z,12.40
2022-11-06T09:38:52.107Z,12.40
2022-11-06T09:41:28.089Z,12.50
2022-11-06T09:44:19.816Z,12.50
2022-11-06T09:46:49.519Z,12.50
2022-11-06T09:49:27.530Z,12.50
2022-11-06T09:52:04.442Z,12.50
2022-11-06T09:54:38.834Z,12.50
2022-11-06T09:57:19.218Z,12.40
2022-11-06T09:59:49.540Z,12.40
2022-11-06T10:02:31.818Z,12.30
2022-11-06T10:05:15.502Z,12.30
2022-11-06T10:07:46.371Z,12.30
2022-11-06T10:10:18.810Z,12.20
2022-11-06T10:13:17.759Z,12.20
2022-11-06T10:15:53.978Z,12.20
2022-11-06T10:18:35.162Z,12.10
2022-11-06T10:21:12.857Z,12.10
2022-11-06T10:23:50.279Z,12.10
2022-11-06T10:26:20.697Z,12.00
2022-11-06T10:29:23.162Z,12.00
2022-11-06T10:32:13.010Z,12.00
2022-11-06T10:34:45.886Z,12.00
2022-11-06T10:37:23.654Z,12.00
2022-11-06T10:39:53.452Z,12.00
2022-11-06T10:42:35.208Z,12.10
2022-11-06T10:45:14.636Z,12.10
2022-11-06T10:47:49.472Z,12.20
2022-11-06T10:50:19.382Z,12.20
2022-11-06T10:53:06.513Z,12.30
2022-11-06T10:56:31.565Z,12.30
2022-11-06T10:59:00.173Z,12.30
2022-11-06T11:01:28.460Z,12.30
2022-11-06T11:03:56.566Z,12.40
2022-11-06T11:06:24.965Z,12.40
2022-11-06T11:08:54.348Z,12.40
2022-11-06T11:11:25.502Z,12.40
2022-11-06T11:14:16.083Z,12.40
2022-11-06T11:16:46.941Z,12.40
2022-11-06T11:19:27.541Z,12.50
2022-11-06T11:21:58.470Z,12.60
2022-11-06T11:24:29.131Z,12.60
2022-11-06T11:27:01.929Z,12.70
2022-11-06T11:29:34.252Z,12.70
2022-11-06T11:32:07.828Z,12.80
2022-11-06T11:34:49.199Z,12.80
2022-11-06T11:37:28.170Z,12.80
2022-11-06T11:40:22.963Z,12.80
2022-11-06T11:42:51.081Z,12.90
2022-11-06T11:45:22.153Z,12.90
2022-11-06T11:47:52.628Z,12.90
2022-11-06T11:50:29.694Z,13.00
2022-11-06T11:53:10.240Z,13.00
2022-11-06T11:55:45.282Z,13.10
2022-11-06T11:58:22.619Z,13.10
2022-11-06T12:00:57.651Z,13.20
2022-11-06T12:03:31.942Z,13.20
2022-11-06T12:06:11.528Z,13.30
2022-11-06T12:08:46.009Z,13.30
2022-11-06T12:11:21.710Z,13.30
2022-11-06T12:14:37.705Z,13.30
2022-11-06T12:17:15.864Z,13.20
2022-11-06T12:19:53.018Z,13.20
2022-11-06T12:22:29.596Z,13.20
2022-11-06T12:25:05.177Z,13.20
2022-11-06T12:27:42.367Z,13.10
2022-11-06T12:30:13.693Z,13.10
2022-11-06T12:32:57.005Z,13.10
2022-11-06T12:35:30.139Z,13.10
2022-11-06T12:38:20.240Z,13.10
2022-11-06T12:40:56.708Z,13.10
2022-11-06T12:43:38.389Z,13.10
2022-11-06T12:46:24.220Z,13.10
2022-11-06T12:49:37.473Z,13.10
2022-11-06T12:52:25.599Z,13.10
2022-11-06T12:55:18.992Z,13.10
2022-11-06T12:58:08.349Z,13.10
2022-11-06T13:00:55.047Z,13.00
2022-11-06T13:03:42.560Z,13.00
2022-11-06T13:06:20.047Z,13.00
2022-11-06T13:08:58.019Z,13.00
2022-11-06T13:11:37.907Z,12.90
2022-11-06T13:14:22.328Z,12.90
2022-11-06T13:17:02.471Z,12.90
2022-11-06T13:19:38.538Z,12.90
2022-11-06T13:22:24.341Z,12.90
2022-11-06T13:25:01.814Z,12.90
2022-11-06T13:27:40.663Z,12.90
2022-11-06T13:30:18.907Z,12.80
2022-11-06T13:33:08.773Z,12.80
2022-11-06T13:35:43.489Z,12.80
2022-11-06T13:38:18.535Z,12.80
2022-11-06T13:40:53.439Z,12.70
2022-11-06T13:43:27.339Z,12.80
2022-11-06T13:46:06.285Z,12.80
2022-11-06T13:48:50.941Z,12.70
2022-11-06T13:51:28.496Z,12.70
2022-11-06T13:54:07.052Z,12.80
2022-11-06T13:57:36.831Z,12.70
2022-11-06T14:00:20.234Z,12.70
2022-11-06T14:03:59.883Z,12.70
2022-11-06T14:06:31.890Z,12.70
2022-11-06T14:09:06.063Z,12.60
2022-11-06T14:11:39.523Z,12.60
2022-11-06T14:14:14.407Z,12.60
2022-11-06T14:16:44.296Z,12.60
2022-11-06T14:19:26.669Z,12.60
2022-11-06T14:22:16.165Z,12.60
2022-11-06T14:24:45.626Z,12.60
2022-11-06T14:27:53.138Z,12.60
2022-11-06T14:31:10.933Z,12.60
2022-11-06T14:34:02.445Z,12.50
2022-11-06T14:36:38.184Z,12.50
2022-11-06T14:39:14.297Z,12.50
2022-11-06T14:41:59.961Z,12.50
2022-11-06T14:44:49.237Z,12.50
2022-11-06T14:47:33.088Z,12.40
2022-11-06T14:50:07.615Z,12.40
2022-11-06T14:52:49.300Z,12.40
2022-11-06T14:55:30.629Z,12.30
2022-11-06T14:58:15.153Z,12.30
2022-11-06T15:00:54.401Z,12.30
2022-11-06T15:03:37.605Z,12.30
2022-11-06T15:06:35.807Z,12.20
2022-11-06T15:09:08.789Z,12.20
2022-11-06T15:11:58.702Z,12.20
2022-11-06T15:14:57.105Z,12.20
2022-11-06T15:17:28.882Z,12.20
2022-11-06T15:20:24.363Z,12.10
2022-11-06T15:23:20.818Z,12.20
2022-11-06T15:26:03.852Z,12.10
2022-11-06T15:28:42.668Z,12.10
2022-11-06T15:31:17.609Z,12.10
2022-11-06T15:34:00.788Z,12.10
2022-11-06T15:36:35.506Z,12.10
2022-11-06T15:39:23.208Z,12.00
2022-11-06T15:41:53.093Z,12.00
2022-11-06T15:44:24.187Z,12.10
2022-11-06T15:46:57.282Z,12.00
2022-11-06T15:49:26.510Z,12.00
2022-11-06T15:51:57.850Z,12.00
2022-11-06T15:54:38.599Z,12.00
2022-11-06T15:57:18.736Z,12.00
2022-11-06T15:59:46.885Z,12.00
2022-11-06T16:02:19.212Z,12.00
2022-11-06T16:04:49.431Z,12.00
2022-11-06T16:07:19.599Z,12.00
2022-11-06T16:09:48.381Z,12.00
2022-11-06T16:12:21.077Z,11.90
2022-11-06T16:14:49.059Z,12.00
2022-11-06T16:17:24.200Z,11.90
2022-11-06T16:19:57.105Z,11.90
2022-11-06T16:22:32.259Z,12.00
2022-11-06T16:25:06.078Z,11.90
2022-11-06T16:27:39.078Z,11.90
2022-11-06T16:30:24.869Z,11.90
2022-11-06T16:32:54.414Z,11.90
2022-11-06T16:35:33.479Z,11.90
2022-11-06T16:38:42.384Z,11.90
2022-11-06T16:41:37.226Z,11.90
2022-11-06T16:44:30.816Z,11.90
2022-11-06T16:47:17.278Z,11.80
2022-11-06T16:49:53.107Z,11.80
2022-11-06T16:52:29.221Z,11.70
2022-11-06T16:55:02.628Z,11.70
2022-11-06T16:57:35.997Z,11.70
2022-11-06T17:00:23.052Z,11.60
2022-11-06T17:02:55.582Z,11.60
2022-11-06T17:05:27.730Z,11.50
2022-11-06T17:08:07.863Z,11.50
2022-11-06T17:10:42.160Z,11.40
2022-11-06T17:13:21.995Z,11.30
2022-11-06T17:15:57.281Z,11.30
2022-11-06T17:18:27.720Z,11.20
2022-11-06T17:20:59.971Z,11.20
2022-11-06T17:23:30.496Z,11.20
2022-11-06T17:26:04.449Z,11.10
2022-11-06T17:28:32.783Z,11.10
2022-11-06T17:31:02.090Z,11.10
2022-11-06T17:33:30.064Z,11.00
2022-11-06T17:35:58.088Z,11.00
2022-11-06T17:38:26.082Z,11.00
2022-11-06T17:40:54.047Z,10.90
2022-11-06T17:43:21.962Z,10.90
2022-11-06T17:45:50.135Z,10.80
2022-11-06T17:48:19.548Z,10.80
2022-11-06T17:51:05.044Z,10.80
2022-11-06T17:53:33.009Z,10.80
2022-11-06T17:56:04.974Z,10.70
2022-11-06T17:58:33.125Z,10.70
2022-11-06T18:01:10.800Z,10.70
2022-11-06T18:03:45.954Z,10.70
2022-11-06T18:06:16.874Z,10.70
2022-11-06T18:08:46.011Z,10.60
2022-11-06T18:11:14.049Z,10.60
2022-11-06T18:13:42.105Z,10.60
2022-11-06T18:16:17.465Z,10.60
2022-11-06T18:18:46.955Z,10.60
2022-11-06T18:21:15.334Z,10.60
2022-11-06T18:23:43.395Z,10.50
2022-11-06T18:26:11.357Z,10.50
2022-11-06T18:28:39.328Z,10.50
2022-11-06T18:31:07.685Z,10.50
2022-11-06T18:33:35.666Z,10.50
2022-11-06T18:36:08.032Z,10.50
2022-11-06T18:38:36.459Z,10.50
2022-11-06T18:41:08.809Z,10.40
2022-11-06T18:43:37.007Z,10.40
2022-11-06T18:46:06.222Z,10.40
2022-11-06T18:48:34.645Z,10.40
2022-11-06T18:51:08.606Z,10.40
2022-11-06T18:53:37.203Z,10.40
2022-11-06T18:56:06.421Z,10.40
2022-11-06T18:58:35.625Z,10.50
2022-11-06T19:01:06.628Z,10.50
2022-11-06T19:03:35.047Z,10.40
2022-11-06T19:06:04.953Z,10.40
2022-11-06T19:08:37.427Z,10.50
2022-11-06T19:11:08.217Z,10.50
2022-11-06T19:13:36.949Z,10.50
2022-11-06T19:16:06.565Z,10.50
2022-11-06T19:18:37.421Z,10.50
2022-11-06T19:21:08.946Z,10.50
2022-11-06T19:23:41.251Z,10.50
2022-11-06T19:26:30.135Z,10.50
2022-11-06T19:29:00.034Z,10.50
2022-11-06T19:31:29.404Z,10.50
2022-11-06T19:33:58.154Z,10.50
2022-11-06T19:36:26.365Z,10.50
2022-11-06T19:38:57.271Z,10.50
2022-11-06T19:41:25.798Z,10.50
2022-11-06T19:43:53.964Z,10.50
2022-11-06T19:46:26.002Z,10.50
2022-11-06T19:48:57.925Z,10.60
2022-11-06T19:51:26.167Z,10.60
2022-11-06T19:53:56.153Z,10.60
2022-11-06T19:56:25.581Z,10.60
2022-11-06T19:58:57.370Z,10.60
2022-11-06T20:01:27.603Z,10.60
2022-11-06T20:03:55.841Z,10.60
2022-11-06T20:06:24.048Z,10.60
2022-11-06T20:08:52.209Z,10.70
2022-11-06T20:11:21.527Z,10.70
2022-11-06T20:13:49.534Z,10.70
2022-11-06T20:16:21.180Z,10.70
2022-11-06T20:18:52.651Z,10.70
2022-11-06T20:21:21.476Z,10.70
2022-11-06T20:23:50.188Z,10.70
2022-11-06T20:26:18.376Z,10.80
2022-11-06T20:28:48.569Z,10.80
2022-11-06T20:31:19.609Z,10.80
2022-11-06T20:33:48.882Z,10.80
2022-11-06T20:36:20.399Z,10.80
2022-11-06T20:38:48.406Z,10.80
2022-11-06T20:41:17.544Z,10.80
2022-11-06T20:43:47.707Z,10.80
2022-11-06T20:46:17.398Z,10.80
2022-11-06T20:48:46.357Z,10.90
2022-11-06T20:51:17.376Z,10.90
2022-11-06T20:53:46.604Z,10.90
2022-11-06T20:56:18.798Z,10.90
2022-11-06T20:58:48.893Z,10.90
2022-11-06T21:01:20.563Z,10.90
2022-11-06T21:03:50.517Z,11.00
2022-11-06T21:06:19.796Z,11.00
2022-11-06T21:08:48.470Z,11.00
2022-11-06T21:11:19.495Z,11.00
2022-11-06T21:13:53.270Z,11.00
2022-11-06T21:16:25.257Z,11.00
2022-11-06T21:18:53.911Z,11.10
2022-11-06T21:21:25.281Z,11.00
2022-11-06T21:23:55.989Z,11.10
2022-11-06T21:26:27.295Z,11.10
2022-11-06T21:28:57.003Z,11.10
2022-11-06T21:31:28.768Z,11.10
2022-11-06T21:33:59.655Z,11.10
2022-11-06T21:36:30.133Z,11.10
2022-11-06T21:39:01.438Z,11.10
2022-11-06T21:41:33.938Z,11.10
2022-11-06T21:44:04.852Z,11.10
2022-11-06T21:46:33.304Z,11.10
2022-11-06T21:49:01.283Z,11.10
2022-11-06T21:51:32.676Z,11.20
2022-11-06T21:54:19.280Z,11.20
2022-11-06T21:56:49.799Z,11.20
2022-11-06T21:59:24.403Z,11.20
2022-11-06T22:01:52.612Z,11.20
2022-11-06T22:04:20.718Z,11.20
2022-11-06T22:06:48.721Z,11.20
2022-11-06T22:09:21.947Z,11.20
2022-11-06T22:11:52.627Z,11.20
2022-11-06T22:14:22.020Z,11.20
2022-11-06T22:16:50.419Z,11.20
2022-11-06T22:19:18.645Z,11.30
2022-11-06T22:21:46.744Z,11.30
2022-11-06T22:24:15.988Z,11.30
2022-11-06T22:26:44.123Z,11.30
2022-11-06T22:29:14.961Z,11.20
2022-11-06T22:31:44.294Z,11.30
2022-11-06T22:34:22.808Z,11.30
2022-11-06T22:36:50.773Z,11.30
2022-11-06T22:39:18.739Z,11.30
2022-11-06T22:41:46.692Z,11.30
2022-11-06T22:44:14.621Z,11.30
2022-11-06T22:46:44.009Z,11.30
2022-11-06T22:49:11.910Z,11.40
2022-11-06T22:51:39.821Z,11.40
2022-11-06T22:54:07.722Z,11.40
2022-11-06T22:56:35.804Z,11.30
2022-11-06T22:59:08.656Z,11.40
2022-11-06T23:01:41.795Z,11.40
2022-11-06T23:04:15.629Z,11.40
2022-11-06T23:06:44.759Z,11.40
2022-11-06T23:09:13.668Z,11.40
2022-11-06T23:11:42.125Z,11.40
2022-11-06T23:14:10.047Z,11.40
2022-11-06T23:16:55.805Z,11.40
2022-11-06T23:19:25.927Z,11.40
2022-11-06T23:22:14.154Z,11.40
2022-11-06T23:24:42.054Z,11.40
2022-11-06T23:27:11.533Z,11.40
2022-11-06T23:29:40.399Z,11.40
2022-11-06T23:32:08.485Z,11.40
2022-11-06T23:34:37.845Z,11.40
2022-11-06T23:37:05.805Z,11.40
2022-11-06T23:39:33.717Z,11.40
2022-11-06T23:42:01.680Z,11.40
2022-11-06T23:44:47.272Z,11.40
2022-11-06T23:47:15.220Z,11.50
2022-11-06T23:49:44.469Z,11.50
2022-11-06T23:52:12.392Z,11.50
2022-11-06T23:54:40.301Z,11.50
2022-11-06T23:57:09.486Z,11.50
2022-11-06T23:59:37.592Z,11.50
